Etusivu
METAR-TAF:

METAR-TAF

Lentoasemat :

Dumas, Texas, Yhdysvallat

Leveyspiiri: 35-51-28N, Pituuspiiri: 102-00-47W, korkeus merenpinnasta: 1129 m

Tämänhetkinen sää

Tämä raportti tehtiin 11 minuuttia sitten, kello 16.35 UTC
Tuuli 8 kn pohjoisesta
Lämpötila 17°C
Kosteus 29%
Ilmanpaine 1016 hPa
Näkyvyys: 16.1 km
selkeää

METAR: KDUX 181635Z AUTO 35008KT 10SM CLR 17/M01 A2999 RMK AO2 T01661006

Aika: 10:46 (16:46 UTC)


TAF: puuttuu

Säähavainnot ja -ennusteet yli 4000 lentoasemalta (METAR- ja TAF-raportit).

Käytössä olevat sääasemat on merkitty karttaan keltaisilla ja punaisilla pisteillä.

Aseta hiiri pisteen päälle nähdäksesi sääaseman nimen.

Klikkaa sitten nähdäksesi säähavainnot ja -ennusteet.

Kartan vaihtaminen: klikkaa mustalla rastilla varustettuja vihreitä pisteitä, niin voit zoomata sisään; viivalla varustettua vihreää pistettä, niin voit zoomata ulos tai vihreitä nuolia, niin pääset viereisille kartoille.


METAR-TAF: